Time;durP1;ratioP1;P1;durP2;ratioP2;P2;SDS_P1;SDS_P2;PMS_P1;PMS_P2;Temp;Humidity;BMP_temperature;BMP_pressure;BME280_temperature;BME280_humidity;BME280_pressure;Samples;Min_cycle;Max_cycle;Signal;HPM_P1;HPM_P2
2023/08/16 00:01:28;;;;;;;;;;;23.90;67.20;;;;;;1567818;75;757;-55
2023/08/16 00:03:30;;;;;;;;;;;23.90;67.30;;;;;;1568402;74;763;-52
2023/08/16 00:05:32;;;;;;;;;;;23.80;67.40;;;;;;1568128;75;739;-57
2023/08/16 00:07:34;;;;;;;;;;;23.90;67.40;;;;;;1570035;74;802;-54
2023/08/16 00:09:36;;;;;;;;;;;23.80;67.20;;;;;;1571357;74;1176;-55
2023/08/16 00:11:38;;;;;;;;;;;23.70;67.40;;;;;;1570397;75;664;-56
2023/08/16 00:13:40;;;;;;;;;;;23.80;67.40;;;;;;1568229;74;1542;-56
2023/08/16 00:15:42;;;;;;;;;;;23.80;67.50;;;;;;1567930;74;748;-56
2023/08/16 00:17:44;;;;;;;;;;;23.80;67.80;;;;;;1566018;74;1931;-54
2023/08/16 00:19:46;;;;;;;;;;;23.80;67.80;;;;;;1561817;74;1199;-56
2023/08/16 00:21:48;;;;;;;;;;;23.80;68.10;;;;;;1566732;74;751;-54
2023/08/16 00:23:50;;;;;;;;;;;23.80;68.10;;;;;;1568316;74;753;-57
2023/08/16 00:25:51;;;;;;;;;;;23.80;68.20;;;;;;1572833;74;765;-57
2023/08/16 00:27:55;;;;;;;;;;;23.70;68.30;;;;;;1568864;74;1297;-56
2023/08/16 00:29:57;;;;;;;;;;;23.70;68.40;;;;;;1567029;74;1088;-54
2023/08/16 00:32:00;;;;;;;;;;;23.80;68.20;;;;;;1571277;74;800;-55
2023/08/16 00:34:02;;;;;;;;;;;23.80;68.10;;;;;;1570922;74;732;-56
2023/08/16 00:36:04;;;;;;;;;;;23.80;67.90;;;;;;1565436;74;727;-57
2023/08/16 00:38:06;;;;;;;;;;;23.80;67.90;;;;;;1552567;74;1926;-56
2023/08/16 00:40:09;;;;;;;;;;;23.80;68.00;;;;;;1569344;74;1337;-55
2023/08/16 00:42:11;;;;;;;;;;;23.80;68.00;;;;;;1571420;74;1318;-54
2023/08/16 00:44:13;;;;;;;;;;;23.80;68.00;;;;;;1568675;74;763;-56
2023/08/16 00:46:14;;;;;;;;;;;23.80;67.90;;;;;;1569306;74;745;-57
2023/08/16 00:48:17;;;;;;;;;;;23.80;67.70;;;;;;1572307;74;722;-56
2023/08/16 00:50:21;;;;;;;;;;;23.80;67.90;;;;;;1570126;75;1134;-54
2023/08/16 00:52:22;;;;;;;;;;;23.80;67.90;;;;;;1567889;75;1628;-54
2023/08/16 00:54:24;;;;;;;;;;;23.90;68.00;;;;;;1570027;74;725;-55
2023/08/16 00:56:26;;;;;;;;;;;23.80;68.00;;;;;;1522266;76;1360;-55
2023/08/16 00:58:28;;;;;;;;;;;23.80;68.00;;;;;;1566275;74;1926;-57
2023/08/16 01:00:29;;;;;;;;;;;23.80;67.90;;;;;;1562965;75;1104;-55
2023/08/16 01:02:31;;;;;;;;;;;23.80;68.00;;;;;;1571737;74;693;-53
2023/08/16 01:04:33;;;;;;;;;;;23.80;67.90;;;;;;1558902;74;689;-54
2023/08/16 01:06:35;;;;;;;;;;;23.80;68.00;;;;;;1560446;74;732;-53
2023/08/16 01:08:37;;;;;;;;;;;23.80;68.10;;;;;;1565963;75;1148;-53
2023/08/16 01:10:49;;;;;;;;;;;23.80;68.20;;;;;;1567639;74;1536;-57
2023/08/16 01:12:53;;;;;;;;;;;23.70;68.10;;;;;;1547521;75;1211;-53
2023/08/16 01:14:57;;;;;;;;;;;23.70;68.00;;;;;;1561913;74;735;-55
2023/08/16 01:16:58;;;;;;;;;;;23.70;68.00;;;;;;1568379;74;737;-55
2023/08/16 01:19:00;;;;;;;;;;;23.70;67.90;;;;;;1568851;74;1950;-57
2023/08/16 01:21:02;;;;;;;;;;;23.70;67.90;;;;;;1570042;75;800;-53
2023/08/16 01:23:05;;;;;;;;;;;23.80;67.80;;;;;;1557350;75;1507;-56
2023/08/16 01:25:11;;;;;;;;;;;23.70;67.80;;;;;;1568657;74;761;-55
2023/08/16 01:27:18;;;;;;;;;;;23.70;67.80;;;;;;1565988;74;702;-56
2023/08/16 01:29:17;;;;;;;;;;;23.70;67.70;;;;;;1567569;75;1665;-54
2023/08/16 01:31:19;;;;;;;;;;;23.70;67.60;;;;;;1567586;75;668;-57
2023/08/16 01:33:20;;;;;;;;;;;23.70;67.50;;;;;;1571041;74;790;-56
2023/08/16 01:35:22;;;;;;;;;;;23.70;67.60;;;;;;1570384;75;871;-53
2023/08/16 01:37:24;;;;;;;;;;;23.70;67.50;;;;;;1570928;75;1430;-57
2023/08/16 01:39:26;;;;;;;;;;;23.70;67.60;;;;;;1565326;74;1933;-57
2023/08/16 01:41:39;;;;;;;;;;;23.70;67.70;;;;;;1567623;74;715;-55
2023/08/16 01:43:41;;;;;;;;;;;23.70;67.60;;;;;;1567881;75;662;-54
2023/08/16 01:45:43;;;;;;;;;;;23.70;67.60;;;;;;1558898;74;768;-57
2023/08/16 01:47:45;;;;;;;;;;;23.70;67.70;;;;;;1566152;75;773;-56
2023/08/16 01:49:47;;;;;;;;;;;23.70;67.60;;;;;;1571090;74;1138;-56
2023/08/16 01:51:49;;;;;;;;;;;23.60;67.50;;;;;;1568853;75;1474;-54
2023/08/16 01:53:54;;;;;;;;;;;23.70;67.60;;;;;;1565471;74;792;-54
2023/08/16 01:55:56;;;;;;;;;;;23.70;67.60;;;;;;1562725;75;688;-55
2023/08/16 01:57:58;;;;;;;;;;;23.60;67.50;;;;;;1569089;74;772;-56
2023/08/16 02:00:00;;;;;;;;;;;23.60;67.40;;;;;;1569654;75;1945;-56
2023/08/16 02:02:02;;;;;;;;;;;23.70;67.60;;;;;;1566123;75;633;-57
2023/08/16 02:04:03;;;;;;;;;;;23.70;67.60;;;;;;1556797;74;789;-54
2023/08/16 02:06:05;;;;;;;;;;;23.60;67.40;;;;;;1565534;74;1532;-55
2023/08/16 02:08:10;;;;;;;;;;;23.60;67.40;;;;;;1565617;74;746;-56
2023/08/16 02:10:11;;;;;;;;;;;23.70;67.50;;;;;;1576879;74;1602;-55
2023/08/16 02:12:13;;;;;;;;;;;23.60;67.40;;;;;;1569274;74;784;-55
2023/08/16 02:14:14;;;;;;;;;;;23.60;67.30;;;;;;1570665;74;753;-55
2023/08/16 02:16:16;;;;;;;;;;;23.60;67.30;;;;;;1562685;74;871;-54
2023/08/16 02:18:18;;;;;;;;;;;23.70;67.40;;;;;;1567010;74;743;-55
2023/08/16 02:20:20;;;;;;;;;;;23.60;67.30;;;;;;1567784;75;1950;-57
2023/08/16 02:22:24;;;;;;;;;;;23.70;67.40;;;;;;1566049;74;769;-55
2023/08/16 02:24:26;;;;;;;;;;;23.60;67.20;;;;;;1566557;74;1644;-56
2023/08/16 02:26:28;;;;;;;;;;;23.60;67.20;;;;;;1526330;77;795;-55
2023/08/16 02:28:30;;;;;;;;;;;23.60;67.20;;;;;;1542845;76;764;-55
2023/08/16 02:30:31;;;;;;;;;;;23.70;67.30;;;;;;1564741;74;1089;-55
2023/08/16 02:32:33;;;;;;;;;;;23.60;67.20;;;;;;1562905;74;739;-55
2023/08/16 02:34:35;;;;;;;;;;;23.60;67.30;;;;;;1560620;74;1535;-57
2023/08/16 02:36:37;;;;;;;;;;;23.60;67.20;;;;;;1561440;74;796;-56
2023/08/16 02:38:39;;;;;;;;;;;23.60;67.10;;;;;;1564717;74;1948;-57
2023/08/16 02:40:41;;;;;;;;;;;23.60;67.10;;;;;;1571216;74;1338;-57
2023/08/16 02:42:45;;;;;;;;;;;23.60;67.10;;;;;;1566536;74;797;-56
2023/08/16 02:44:47;;;;;;;;;;;23.60;67.10;;;;;;1524773;77;819;-55
2023/08/16 02:46:49;;;;;;;;;;;23.60;67.10;;;;;;1545697;75;733;-56
2023/08/16 02:48:51;;;;;;;;;;;23.60;67.20;;;;;;1551640;75;1531;-53
2023/08/16 02:50:52;;;;;;;;;;;23.60;67.20;;;;;;1566189;74;710;-57
2023/08/16 02:52:54;;;;;;;;;;;23.60;67.10;;;;;;1566766;75;768;-57
2023/08/16 02:54:56;;;;;;;;;;;23.60;67.10;;;;;;1568073;74;733;-55
2023/08/16 02:56:58;;;;;;;;;;;23.60;67.00;;;;;;1564475;74;787;-57
2023/08/16 02:59:00;;;;;;;;;;;23.60;67.00;;;;;;1569858;75;1950;-55
2023/08/16 03:01:02;;;;;;;;;;;23.60;67.00;;;;;;1565527;74;858;-56
2023/08/16 03:03:04;;;;;;;;;;;23.60;66.90;;;;;;1566594;74;1544;-54
2023/08/16 03:05:06;;;;;;;;;;;23.60;66.80;;;;;;1564638;74;927;-53
2023/08/16 03:07:08;;;;;;;;;;;23.60;66.80;;;;;;1569038;74;708;-57
2023/08/16 03:09:10;;;;;;;;;;;23.60;66.80;;;;;;1566173;74;1160;-56
2023/08/16 03:11:12;;;;;;;;;;;23.60;66.70;;;;;;1559365;75;709;-56
2023/08/16 03:13:14;;;;;;;;;;;23.60;66.70;;;;;;1567935;74;801;-57
2023/08/16 03:15:16;;;;;;;;;;;23.60;66.60;;;;;;1569537;74;782;-57
2023/08/16 03:17:18;;;;;;;;;;;23.60;66.60;;;;;;1569360;74;1354;-56
2023/08/16 03:19:20;;;;;;;;;;;23.60;66.60;;;;;;1569279;75;1944;-54
2023/08/16 03:21:23;;;;;;;;;;;23.60;66.50;;;;;;1565271;74;781;-53
2023/08/16 03:23:25;;;;;;;;;;;23.60;66.50;;;;;;1569123;75;603;-57
2023/08/16 03:25:27;;;;;;;;;;;23.50;66.50;;;;;;1564933;74;700;-56
2023/08/16 03:27:29;;;;;;;;;;;23.60;66.40;;;;;;1570105;74;787;-56
2023/08/16 03:29:31;;;;;;;;;;;23.50;66.40;;;;;;1558333;74;1489;-57
2023/08/16 03:31:33;;;;;;;;;;;23.50;66.40;;;;;;1560214;75;731;-54
2023/08/16 03:33:35;;;;;;;;;;;23.50;66.40;;;;;;1566796;75;750;-54
2023/08/16 03:35:37;;;;;;;;;;;23.60;66.40;;;;;;1571676;74;777;-57
2023/08/16 03:37:38;;;;;;;;;;;23.50;66.40;;;;;;1569861;74;784;-56
2023/08/16 03:39:40;;;;;;;;;;;23.50;66.40;;;;;;1563305;74;1950;-54
2023/08/16 03:41:42;;;;;;;;;;;23.50;66.30;;;;;;1569884;75;800;-57
2023/08/16 03:43:44;;;;;;;;;;;23.50;66.20;;;;;;1565327;75;1503;-54
2023/08/16 03:45:48;;;;;;;;;;;23.60;66.20;;;;;;1566654;74;755;-56
2023/08/16 03:47:51;;;;;;;;;;;23.50;66.20;;;;;;1568886;75;764;-54
2023/08/16 03:49:53;;;;;;;;;;;23.50;66.10;;;;;;1568855;74;1154;-56
2023/08/16 03:51:54;;;;;;;;;;;23.60;66.00;;;;;;1568244;74;722;-55
2023/08/16 03:53:56;;;;;;;;;;;23.50;66.00;;;;;;1570315;74;724;-54
2023/08/16 03:55:58;;;;;;;;;;;23.50;65.90;;;;;;1569606;74;709;-54
2023/08/16 03:58:00;;;;;;;;;;;23.50;65.90;;;;;;1560267;75;1413;-56
2023/08/16 04:00:03;;;;;;;;;;;23.50;65.90;;;;;;1569864;74;1961;-54
2023/08/16 04:02:05;;;;;;;;;;;23.50;65.90;;;;;;1571281;75;755;-55
2023/08/16 04:04:07;;;;;;;;;;;23.50;65.80;;;;;;1574064;74;712;-55
2023/08/16 04:06:12;;;;;;;;;;;23.50;65.80;;;;;;1567039;74;757;-55
2023/08/16 04:08:14;;;;;;;;;;;23.50;65.70;;;;;;1569047;74;709;-54
2023/08/16 04:10:16;;;;;;;;;;;23.50;65.80;;;;;;1568816;74;1152;-57
2023/08/16 04:12:17;;;;;;;;;;;23.50;65.60;;;;;;1568641;74;1521;-57
2023/08/16 04:14:19;;;;;;;;;;;23.50;65.60;;;;;;1563030;74;748;-56
2023/08/16 04:16:21;;;;;;;;;;;23.50;65.50;;;;;;1567636;74;797;-53
2023/08/16 04:18:23;;;;;;;;;;;23.50;65.50;;;;;;1566788;74;802;-55
2023/08/16 04:20:25;;;;;;;;;;;23.50;65.50;;;;;;1569304;74;1942;-54
2023/08/16 04:22:27;;;;;;;;;;;23.50;65.50;;;;;;1570621;74;731;-56
2023/08/16 04:24:29;;;;;;;;;;;23.50;65.50;;;;;;1564735;74;710;-57
2023/08/16 04:26:30;;;;;;;;;;;23.50;65.50;;;;;;1566797;74;1563;-54
2023/08/16 04:28:32;;;;;;;;;;;23.50;65.50;;;;;;1561280;74;674;-54
2023/08/16 04:30:34;;;;;;;;;;;23.50;65.60;;;;;;1557898;74;1176;-53
2023/08/16 04:32:36;;;;;;;;;;;23.50;65.60;;;;;;1567608;75;768;-53
2023/08/16 04:34:38;;;;;;;;;;;23.50;65.60;;;;;;1563335;74;845;-55
2023/08/16 04:36:40;;;;;;;;;;;23.50;65.60;;;;;;1568989;74;763;-55
2023/08/16 04:38:42;;;;;;;;;;;23.50;65.70;;;;;;1564714;74;1089;-56
2023/08/16 04:40:44;;;;;;;;;;;23.40;65.60;;;;;;1568149;74;1921;-54
2023/08/16 04:42:46;;;;;;;;;;;23.40;65.70;;;;;;1567193;74;737;-55
2023/08/16 04:44:48;;;;;;;;;;;23.50;65.80;;;;;;1565450;74;755;-54
2023/08/16 04:46:50;;;;;;;;;;;23.40;65.70;;;;;;1564856;75;804;-53
2023/08/16 04:48:53;;;;;;;;;;;23.50;65.90;;;;;;1570659;75;1161;-53
2023/08/16 04:50:55;;;;;;;;;;;23.40;65.80;;;;;;1567365;74;731;-56
2023/08/16 04:52:57;;;;;;;;;;;23.40;65.90;;;;;;1569196;74;777;-55
2023/08/16 04:54:59;;;;;;;;;;;23.50;66.00;;;;;;1571057;75;1324;-54
2023/08/16 04:57:00;;;;;;;;;;;23.50;66.00;;;;;;1564453;74;704;-55
2023/08/16 04:59:02;;;;;;;;;;;23.40;65.90;;;;;;1570142;74;1164;-54
2023/08/16 05:01:04;;;;;;;;;;;23.50;66.00;;;;;;1559889;74;1936;-54
2023/08/16 05:03:06;;;;;;;;;;;23.40;65.90;;;;;;1556945;74;817;-55
2023/08/16 05:05:08;;;;;;;;;;;23.50;65.90;;;;;;1568636;74;679;-57
2023/08/16 05:07:10;;;;;;;;;;;23.50;65.90;;;;;;1567162;74;713;-55
2023/08/16 05:09:12;;;;;;;;;;;23.50;65.90;;;;;;1568883;74;1508;-54
2023/08/16 05:11:14;;;;;;;;;;;23.40;65.90;;;;;;1522839;76;671;-54
2023/08/16 05:13:17;;;;;;;;;;;23.40;66.10;;;;;;1520910;76;766;-56
2023/08/16 05:15:19;;;;;;;;;;;23.50;66.20;;;;;;1528434;76;735;-57
2023/08/16 05:17:21;;;;;;;;;;;23.50;66.20;;;;;;1528967;76;751;-56
2023/08/16 05:19:23;;;;;;;;;;;23.50;66.30;;;;;;1553896;76;1192;-56
2023/08/16 05:21:25;;;;;;;;;;;23.50;66.40;;;;;;1570511;74;1938;-57
2023/08/16 05:23:26;;;;;;;;;;;23.50;66.40;;;;;;1570692;75;1520;-54
2023/08/16 05:25:28;;;;;;;;;;;23.50;66.40;;;;;;1565071;74;744;-54
2023/08/16 05:27:30;;;;;;;;;;;23.50;66.40;;;;;;1571039;74;755;-56
2023/08/16 05:29:32;;;;;;;;;;;23.60;66.30;;;;;;1567553;75;1221;-56
2023/08/16 05:31:34;;;;;;;;;;;23.60;66.40;;;;;;1556916;75;740;-54
2023/08/16 05:33:37;;;;;;;;;;;23.70;66.30;;;;;;1560557;74;735;-55
2023/08/16 05:35:38;;;;;;;;;;;23.70;66.30;;;;;;1565384;74;769;-55
2023/08/16 05:37:41;;;;;;;;;;;23.70;66.50;;;;;;1569906;74;1533;-56
2023/08/16 05:39:43;;;;;;;;;;;23.80;66.90;;;;;;1569000;75;1923;-57
2023/08/16 05:41:44;;;;;;;;;;;23.80;66.60;;;;;;1565572;74;707;-56
2023/08/16 05:43:46;;;;;;;;;;;23.80;66.80;;;;;;1524271;78;1064;-57
2023/08/16 05:45:48;;;;;;;;;;;23.90;66.70;;;;;;1560623;75;765;-55
2023/08/16 05:47:50;;;;;;;;;;;23.90;66.60;;;;;;1559757;75;735;-55
2023/08/16 05:49:52;;;;;;;;;;;23.90;66.90;;;;;;1559521;75;1149;-57
2023/08/16 05:51:54;;;;;;;;;;;23.90;66.70;;;;;;1559651;75;1496;-57
2023/08/16 05:53:56;;;;;;;;;;;24.00;66.50;;;;;;1557840;75;699;-57
2023/08/16 05:55:57;;;;;;;;;;;24.00;66.30;;;;;;1559729;75;792;-56
2023/08/16 05:57:59;;;;;;;;;;;24.20;66.20;;;;;;1556647;75;687;-54
2023/08/16 06:00:01;;;;;;;;;;;24.10;66.10;;;;;;1553556;75;1938;-57
2023/08/16 06:02:03;;;;;;;;;;;24.20;66.30;;;;;;1561202;75;792;-55
2023/08/16 06:04:05;;;;;;;;;;;24.20;66.00;;;;;;1557513;75;724;-54
2023/08/16 06:06:07;;;;;;;;;;;24.20;66.10;;;;;;1555724;76;1459;-57
2023/08/16 06:08:09;;;;;;;;;;;24.30;66.00;;;;;;1556128;75;807;-55
2023/08/16 06:10:11;;;;;;;;;;;24.40;65.80;;;;;;1559703;76;1106;-55
2023/08/16 06:12:13;;;;;;;;;;;24.40;65.40;;;;;;1557471;75;769;-57
2023/08/16 06:14:14;;;;;;;;;;;24.40;64.60;;;;;;1559235;75;761;-55
2023/08/16 06:16:17;;;;;;;;;;;24.50;65.20;;;;;;1555066;75;636;-56
2023/08/16 06:18:19;;;;;;;;;;;24.50;65.40;;;;;;1559363;76;1322;-53
2023/08/16 06:20:21;;;;;;;;;;;24.50;65.00;;;;;;1551671;76;1949;-55
2023/08/16 06:22:23;;;;;;;;;;;24.50;64.50;;;;;;1557903;76;753;-54
2023/08/16 06:24:25;;;;;;;;;;;24.60;64.10;;;;;;1558793;75;738;-55
2023/08/16 06:26:27;;;;;;;;;;;24.60;63.70;;;;;;1554347;75;1080;-54
2023/08/16 06:28:29;;;;;;;;;;;24.70;63.50;;;;;;1548954;75;724;-54
2023/08/16 06:30:31;;;;;;;;;;;24.70;63.50;;;;;;1556854;75;1161;-54
2023/08/16 06:32:33;;;;;;;;;;;24.70;63.40;;;;;;1559916;75;1536;-57
2023/08/16 06:34:35;;;;;;;;;;;24.80;63.10;;;;;;1553205;76;1195;-58
2023/08/16 06:36:36;;;;;;;;;;;24.80;62.90;;;;;;1568098;74;1097;-57
2023/08/16 06:38:38;;;;;;;;;;;24.80;62.70;;;;;;1570674;74;1134;-57
2023/08/16 06:40:41;;;;;;;;;;;24.80;62.60;;;;;;1571281;74;1937;-57
2023/08/16 06:42:43;;;;;;;;;;;24.80;62.60;;;;;;1569033;74;718;-57
2023/08/16 06:44:45;;;;;;;;;;;24.90;62.60;;;;;;1565108;74;772;-55
2023/08/16 06:46:47;;;;;;;;;;;24.90;62.50;;;;;;1562402;74;1537;-56
2023/08/16 06:48:50;;;;;;;;;;;24.90;62.50;;;;;;1567352;74;1144;-55
2023/08/16 06:50:52;;;;;;;;;;;25.00;62.50;;;;;;1568616;74;748;-55
2023/08/16 06:52:54;;;;;;;;;;;24.90;62.50;;;;;;1570304;74;657;-57
2023/08/16 06:54:56;;;;;;;;;;;24.90;62.50;;;;;;1570217;74;666;-57
2023/08/16 06:56:58;;;;;;;;;;;24.90;62.50;;;;;;1564920;75;776;-56
2023/08/16 06:59:00;;;;;;;;;;;24.90;62.50;;;;;;1571376;74;1146;-55
2023/08/16 07:01:01;;;;;;;;;;;24.90;62.50;;;;;;1567322;74;1942;-54
2023/08/16 07:03:04;;;;;;;;;;;24.90;62.60;;;;;;1559814;74;773;-53
2023/08/16 07:05:06;;;;;;;;;;;24.80;62.70;;;;;;1569766;74;801;-55
2023/08/16 07:07:08;;;;;;;;;;;24.80;63.00;;;;;;1569373;75;793;-56
2023/08/16 07:09:09;;;;;;;;;;;24.80;63.10;;;;;;1564784;74;1106;-54
2023/08/16 07:11:11;;;;;;;;;;;24.80;63.20;;;;;;1564779;75;747;-56
2023/08/16 07:13:14;;;;;;;;;;;24.80;63.40;;;;;;1571235;74;779;-57
2023/08/16 07:15:16;;;;;;;;;;;24.80;63.40;;;;;;1565817;75;1509;-55
2023/08/16 07:17:18;;;;;;;;;;;24.70;63.40;;;;;;1565120;74;821;-57
2023/08/16 07:19:20;;;;;;;;;;;24.70;63.40;;;;;;1568519;74;1142;-56
2023/08/16 07:21:22;;;;;;;;;;;24.80;63.60;;;;;;1567317;74;1906;-56
2023/08/16 07:23:24;;;;;;;;;;;24.70;63.70;;;;;;1569662;75;804;-55
2023/08/16 07:25:26;;;;;;;;;;;24.70;63.70;;;;;;1570700;74;743;-56
2023/08/16 07:27:28;;;;;;;;;;;24.70;63.80;;;;;;1569603;75;667;-55
2023/08/16 07:29:30;;;;;;;;;;;24.70;63.90;;;;;;1558315;75;1413;-55
2023/08/16 07:31:32;;;;;;;;;;;24.70;63.90;;;;;;1566102;74;700;-56
2023/08/16 07:33:35;;;;;;;;;;;24.70;63.80;;;;;;1569286;75;681;-54
2023/08/16 07:35:37;;;;;;;;;;;24.70;63.80;;;;;;1560972;74;1108;-57
2023/08/16 07:37:39;;;;;;;;;;;24.70;63.80;;;;;;1570926;75;769;-56
2023/08/16 07:39:41;;;;;;;;;;;24.60;63.60;;;;;;1558352;74;1142;-57
2023/08/16 07:41:43;;;;;;;;;;;24.60;63.50;;;;;;1570820;74;1942;-54
2023/08/16 07:43:44;;;;;;;;;;;24.60;63.40;;;;;;1569634;74;1495;-55
2023/08/16 07:45:46;;;;;;;;;;;24.70;63.50;;;;;;1569766;74;758;-56
2023/08/16 07:47:48;;;;;;;;;;;24.60;63.40;;;;;;1580329;75;1229;-56
2023/08/16 07:49:50;;;;;;;;;;;24.60;63.30;;;;;;1569498;74;1111;-55
2023/08/16 07:51:53;;;;;;;;;;;24.60;63.40;;;;;;1570733;75;710;-56
2023/08/16 07:53:55;;;;;;;;;;;24.70;63.50;;;;;;1569908;74;747;-57
2023/08/16 07:55:57;;;;;;;;;;;24.70;63.50;;;;;;1569896;75;788;-56
2023/08/16 07:57:59;;;;;;;;;;;24.60;63.40;;;;;;1566256;74;1424;-55
2023/08/16 08:00:01;;;;;;;;;;;24.70;63.40;;;;;;1563594;74;1097;-55
2023/08/16 08:02:05;;;;;;;;;;;24.50;63.20;;;;;;1570083;74;1911;-54
2023/08/16 08:04:06;;;;;;;;;;;24.60;63.20;;;;;;1564872;74;1694;-55
2023/08/16 08:06:09;;;;;;;;;;;24.60;63.20;;;;;;1563317;75;727;-53
2023/08/16 08:08:11;;;;;;;;;;;24.60;63.30;;;;;;1566884;74;810;-56
2023/08/16 08:10:14;;;;;;;;;;;24.60;63.40;;;;;;1566452;74;1122;-54
2023/08/16 08:12:16;;;;;;;;;;;24.60;63.50;;;;;;1566650;74;1312;-54
2023/08/16 08:14:18;;;;;;;;;;;24.70;63.60;;;;;;1562221;74;725;-57
2023/08/16 08:16:20;;;;;;;;;;;24.60;63.50;;;;;;1563907;74;666;-54
2023/08/16 08:18:21;;;;;;;;;;;24.60;63.50;;;;;;1571451;75;748;-55
2023/08/16 08:20:23;;;;;;;;;;;24.60;63.50;;;;;;1570530;74;1146;-53
2023/08/16 08:22:25;;;;;;;;;;;24.60;63.60;;;;;;1567410;74;1926;-55
2023/08/16 08:24:27;;;;;;;;;;;24.60;63.60;;;;;;1567855;74;710;-55
2023/08/16 08:26:30;;;;;;;;;;;24.60;63.70;;;;;;1565488;74;1629;-56
2023/08/16 08:28:32;;;;;;;;;;;24.60;63.70;;;;;;1571294;74;777;-54
2023/08/16 08:30:34;;;;;;;;;;;24.60;63.60;;;;;;1555741;76;1189;-57
2023/08/16 08:32:36;;;;;;;;;;;24.60;63.70;;;;;;1568632;74;731;-56
2023/08/16 08:34:38;;;;;;;;;;;24.60;63.70;;;;;;1569664;74;693;-56
2023/08/16 08:36:40;;;;;;;;;;;24.60;63.80;;;;;;1569081;75;766;-53
2023/08/16 08:38:42;;;;;;;;;;;24.60;63.80;;;;;;1569423;74;1136;-54
2023/08/16 08:40:44;;;;;;;;;;;24.60;63.90;;;;;;1566032;75;1531;-55
2023/08/16 08:42:46;;;;;;;;;;;24.60;63.90;;;;;;1566090;74;707;-55
2023/08/16 08:44:48;;;;;;;;;;;24.60;63.90;;;;;;1564508;74;729;-57
2023/08/16 08:46:50;;;;;;;;;;;24.60;63.90;;;;;;1565739;74;793;-57
2023/08/16 08:48:52;;;;;;;;;;;24.60;63.90;;;;;;1571091;74;1086;-57
2023/08/16 08:50:54;;;;;;;;;;;24.60;63.90;;;;;;1570733;74;784;-57
2023/08/16 08:53:00;;;;;;;;;;;24.60;63.90;;;;;;1570308;74;685;-55
2023/08/16 08:55:02;;;;;;;;;;;24.60;63.90;;;;;;1562606;74;1989;-55
2023/08/16 08:57:04;;;;;;;;;;;24.60;63.90;;;;;;1566676;75;776;-53
2023/08/16 08:59:06;;;;;;;;;;;24.60;63.90;;;;;;1567753;74;1147;-57
2023/08/16 09:01:09;;;;;;;;;;;24.60;63.70;;;;;;1564040;75;1911;-54
2023/08/16 09:03:12;;;;;;;;;;;24.60;63.70;;;;;;1573731;74;939;-56
2023/08/16 09:05:14;;;;;;;;;;;24.60;63.60;;;;;;1565925;74;769;-55
2023/08/16 09:07:16;;;;;;;;;;;24.60;63.60;;;;;;1565998;74;1437;-55
2023/08/16 09:09:18;;;;;;;;;;;24.60;63.50;;;;;;1570226;74;1142;-54
2023/08/16 09:11:20;;;;;;;;;;;24.70;63.70;;;;;;1570557;74;931;-55
2023/08/16 09:13:22;;;;;;;;;;;24.60;63.60;;;;;;1571369;74;750;-57
2023/08/16 09:15:24;;;;;;;;;;;24.60;63.60;;;;;;1556954;74;777;-57
2023/08/16 09:17:26;;;;;;;;;;;24.60;63.50;;;;;;1558300;74;761;-57
2023/08/16 09:19:28;;;;;;;;;;;24.50;63.50;;;;;;1529994;78;1135;-56
2023/08/16 09:21:30;;;;;;;;;;;24.60;63.50;;;;;;1568690;75;1927;-54
2023/08/16 09:23:33;;;;;;;;;;;24.60;63.50;;;;;;1565489;74;752;-56
2023/08/16 09:25:35;;;;;;;;;;;24.60;63.50;;;;;;1570304;74;818;-57
2023/08/16 09:27:38;;;;;;;;;;;24.60;63.50;;;;;;1568976;74;699;-55
2023/08/16 09:29:41;;;;;;;;;;;24.60;63.50;;;;;;1564645;75;1900;-55
2023/08/16 09:31:43;;;;;;;;;;;24.60;63.50;;;;;;1568568;74;777;-56
2023/08/16 09:33:45;;;;;;;;;;;24.60;63.50;;;;;;1562031;74;773;-57
2023/08/16 09:35:52;;;;;;;;;;;24.60;63.40;;;;;;1570583;74;1494;-56
2023/08/16 09:37:52;;;;;;;;;;;24.60;63.40;;;;;;1569823;74;1198;-57
2023/08/16 09:39:58;;;;;;;;;;;24.70;63.50;;;;;;1567985;74;1895;-56
2023/08/16 09:42:00;;;;;;;;;;;24.60;63.30;;;;;;1569755;75;1915;-54
2023/08/16 09:44:05;;;;;;;;;;;24.60;63.50;;;;;;1560457;74;764;-55
2023/08/16 09:46:07;;;;;;;;;;;24.60;63.40;;;;;;1571834;74;697;-57
2023/08/16 09:48:09;;;;;;;;;;;24.60;63.30;;;;;;1569851;75;730;-54
2023/08/16 09:50:12;;;;;;;;;;;24.60;63.40;;;;;;1562368;74;1481;-55
2023/08/16 09:52:14;;;;;;;;;;;24.70;63.40;;;;;;1566658;75;725;-54
2023/08/16 09:54:17;;;;;;;;;;;24.60;63.20;;;;;;1560005;74;729;-57
2023/08/16 09:56:19;;;;;;;;;;;24.60;63.20;;;;;;1569660;75;738;-56
2023/08/16 09:58:21;;;;;;;;;;;24.60;63.10;;;;;;1569341;74;639;-54
2023/08/16 10:00:27;;;;;;;;;;;24.60;63.10;;;;;;1570483;74;1127;-55
2023/08/16 10:02:26;;;;;;;;;;;24.60;63.10;;;;;;1569818;74;1901;-57
2023/08/16 10:04:28;;;;;;;;;;;24.60;63.20;;;;;;1566796;74;1584;-57
2023/08/16 10:06:33;;;;;;;;;;;24.50;63.20;;;;;;1568658;74;684;-57
2023/08/16 10:08:36;;;;;;;;;;;24.60;63.00;;;;;;1568084;74;757;-57
2023/08/16 10:10:38;;;;;;;;;;;24.60;63.00;;;;;;1569851;74;739;-55
2023/08/16 10:12:40;;;;;;;;;;;24.60;62.90;;;;;;1568999;74;730;-54
2023/08/16 10:14:42;;;;;;;;;;;24.60;62.50;;;;;;1567866;74;724;-57
2023/08/16 10:16:44;;;;;;;;;;;24.60;62.60;;;;;;1564613;74;761;-57
2023/08/16 10:18:46;;;;;;;;;;;24.60;62.60;;;;;;1562879;74;1534;-57
2023/08/16 10:20:48;;;;;;;;;;;24.60;62.60;;;;;;1564061;74;742;-57
2023/08/16 10:22:53;;;;;;;;;;;24.60;62.50;;;;;;1566669;74;1954;-57
2023/08/16 10:24:55;;;;;;;;;;;24.60;62.40;;;;;;1565049;74;932;-57
2023/08/16 10:26:57;;;;;;;;;;;24.60;62.40;;;;;;1570583;74;790;-53
2023/08/16 10:29:00;;;;;;;;;;;24.60;62.50;;;;;;1571319;74;1149;-58
2023/08/16 10:31:02;;;;;;;;;;;24.60;62.40;;;;;;1560926;75;718;-57
2023/08/16 10:33:09;;;;;;;;;;;24.70;62.40;;;;;;1550259;75;1597;-56
2023/08/16 10:35:10;;;;;;;;;;;24.60;62.60;;;;;;1559864;74;712;-57
2023/08/16 10:37:13;;;;;;;;;;;24.60;62.40;;;;;;1568179;74;782;-57
2023/08/16 10:39:17;;;;;;;;;;;24.60;62.60;;;;;;1566087;74;1186;-57
2023/08/16 10:41:20;;;;;;;;;;;24.50;62.40;;;;;;1570278;74;1465;-57
2023/08/16 10:43:23;;;;;;;;;;;24.50;62.40;;;;;;1567051;74;1912;-53
2023/08/16 10:45:27;;;;;;;;;;;24.60;62.20;;;;;;1568245;75;1185;-56
2023/08/16 10:47:29;;;;;;;;;;;24.60;62.30;;;;;;1571650;74;1629;-57
2023/08/16 10:49:37;;;;;;;;;;;24.60;62.20;;;;;;1569962;74;1118;-56
2023/08/16 10:51:43;;;;;;;;;;;24.60;62.10;;;;;;1575480;74;728;-56
2023/08/16 10:53:45;;;;;;;;;;;24.50;62.30;;;;;;1563665;74;1820;-57
2023/08/16 10:55:52;;;;;;;;;;;24.50;62.10;;;;;;1571976;74;743;-56
2023/08/16 10:57:54;;;;;;;;;;;24.60;62.10;;;;;;1571667;75;727;-57
2023/08/16 11:00:03;;;;;;;;;;;24.50;62.10;;;;;;1564618;75;1196;-54
2023/08/16 11:02:14;;;;;;;;;;;24.60;62.00;;;;;;1557450;75;1901;-57
2023/08/16 11:04:15;;;;;;;;;;;24.60;62.00;;;;;;1569704;74;1638;-57
2023/08/16 11:06:18;;;;;;;;;;;24.60;62.10;;;;;;1562980;75;726;-56
2023/08/16 11:08:20;;;;;;;;;;;24.50;62.10;;;;;;1564123;74;675;-53
2023/08/16 11:10:24;;;;;;;;;;;24.60;61.90;;;;;;1563611;74;1096;-57
2023/08/16 11:12:29;;;;;;;;;;;24.60;61.90;;;;;;1569364;74;1839;-57
2023/08/16 11:14:32;;;;;;;;;;;24.60;62.00;;;;;;1558069;74;1334;-56
2023/08/16 11:16:34;;;;;;;;;;;24.70;61.90;;;;;;1555878;75;724;-56
2023/08/16 11:18:37;;;;;;;;;;;24.60;61.70;;;;;;1570660;74;730;-56
2023/08/16 11:20:39;;;;;;;;;;;24.60;61.80;;;;;;1564297;74;778;-55
2023/08/16 11:22:41;;;;;;;;;;;24.60;61.70;;;;;;1567164;74;1933;-54
2023/08/16 11:24:44;;;;;;;;;;;24.50;61.60;;;;;;1567854;74;776;-57
2023/08/16 11:26:46;;;;;;;;;;;24.50;61.60;;;;;;1570771;74;769;-54
2023/08/16 11:28:48;;;;;;;;;;;24.60;61.60;;;;;;1568857;74;1302;-57
2023/08/16 11:30:56;;;;;;;;;;;24.60;61.60;;;;;;1565724;74;796;-57
2023/08/16 11:32:59;;;;;;;;;;;24.50;61.60;;;;;;1567017;74;642;-56
2023/08/16 11:35:02;;;;;;;;;;;24.60;61.40;;;;;;1570296;74;637;-57
2023/08/16 11:37:03;;;;;;;;;;;24.60;61.70;;;;;;1565572;74;731;-57
2023/08/16 11:39:08;;;;;;;;;;;24.50;61.80;;;;;;1570653;74;1155;-57
2023/08/16 11:41:09;;;;;;;;;;;24.50;61.50;;;;;;1569325;74;1266;-57
2023/08/16 11:43:11;;;;;;;;;;;24.60;61.40;;;;;;1570597;75;1922;-57
2023/08/16 11:45:19;;;;;;;;;;;24.60;61.60;;;;;;1571171;74;732;-54
2023/08/16 11:47:21;;;;;;;;;;;24.50;61.60;;;;;;1569640;74;741;-54
2023/08/16 11:49:24;;;;;;;;;;;24.60;61.50;;;;;;1569685;74;1086;-56
2023/08/16 11:51:27;;;;;;;;;;;24.50;61.50;;;;;;1568395;74;734;-57
2023/08/16 11:53:33;;;;;;;;;;;24.60;61.80;;;;;;1566303;75;657;-56
2023/08/16 11:55:35;;;;;;;;;;;24.60;61.70;;;;;;1569979;75;705;-57
2023/08/16 11:57:44;;;;;;;;;;;24.60;61.60;;;;;;1570882;74;1621;-57
2023/08/16 11:59:47;;;;;;;;;;;24.50;61.60;;;;;;1563835;74;1132;-55
2023/08/16 12:01:49;;;;;;;;;;;24.60;61.20;;;;;;1563857;74;1157;-57
2023/08/16 12:03:51;;;;;;;;;;;24.50;61.40;;;;;;1570398;75;1934;-55
2023/08/16 12:05:53;;;;;;;;;;;24.60;61.50;;;;;;1566044;75;688;-54
2023/08/16 12:07:54;;;;;;;;;;;24.60;61.50;;;;;;1564599;74;748;-53
2023/08/16 12:09:56;;;;;;;;;;;24.50;61.50;;;;;;1564982;74;1581;-56